Time;durP1;ratioP1;P1;durP2;ratioP2;P2;SDS_P1;SDS_P2;PMS_P1;PMS_P2;Temp;Humidity;BMP_temperature;BMP_pressure;BME280_temperature;BME280_humidity;BME280_pressure;Samples;Min_cycle;Max_cycle;Signal;HPM_P1;HPM_P2
2023/09/29 00:00:46;;;;;;;2.33;1.30;;;;;;;;;;5048094;28;20025;-82
2023/09/29 00:03:12;;;;;;;3.00;1.60;;;16.90;91.40;;;;;;5049734;28;20029;-82
2023/09/29 00:05:38;;;;;;;2.92;1.33;;;17.00;93.90;;;;;;5048243;28;20497;-81
2023/09/29 00:08:06;;;;;;;2.08;1.15;;;16.70;94.10;;;;;;5042603;28;20033;-82
2023/09/29 00:10:34;;;;;;;3.45;1.40;;;;;;;;;;5048132;28;20547;-81
2023/09/29 00:12:59;;;;;;;;;;;16.90;81.80;;;;;;5052002;28;20430;-82
2023/09/29 00:15:25;;;;;;;3.33;1.70;;;;;;;;;;5050632;28;19908;-81
2023/09/29 00:17:51;;;;;;;2.05;1.17;;;;;;;;;;5051292;28;20040;-82
2023/09/29 00:20:23;;;;;;;1.70;1.23;;;;;;;;;;5049878;28;20029;-83
2023/09/29 00:22:49;;;;;;;5.22;1.60;;;16.90;94.30;;;;;;5051003;28;20021;-81
2023/09/29 00:25:15;;;;;;;1.93;1.43;;;;;;;;;;5049573;28;20566;-81
2023/09/29 00:27:42;;;;;;;5.07;1.40;;;;;;;;;;5043435;28;20303;-81
2023/09/29 00:30:10;;;;;;;2.90;1.10;;;16.60;83.40;;;;;;5050332;28;20025;-81
2023/09/29 00:32:36;;;;;;;2.75;1.48;;;;;;;;;;5050863;28;20028;-82
2023/09/29 00:35:04;;;;;;;2.72;1.88;;;;;;;;;;5049049;28;20029;-81
2023/09/29 00:37:30;;;;;;;1.88;1.55;;;;;;;;;;5045603;28;20036;-82
2023/09/29 00:39:56;;;;;;;2.88;1.65;;;;;;;;;;5029581;28;20142;-81
2023/09/29 00:42:22;;;;;;;2.67;1.30;;;16.80;93.30;;;;;;5034158;28;20032;-81
2023/09/29 00:44:48;;;;;;;1.73;1.15;;;;;;;;;;5031561;28;20037;-81
2023/09/29 00:47:15;;;;;;;2.33;1.30;;;;;;;;;;5030847;28;20060;-81
2023/09/29 00:49:42;;;;;;;1.10;0.77;;;;;;;;;;5031636;28;20552;-81
2023/09/29 00:52:08;;;;;;;3.53;1.20;;;;;;;;;;5030565;28;20041;-81
2023/09/29 00:54:36;;;;;;;1.80;1.30;;;16.50;84.90;;;;;;5031217;28;20466;-81
2023/09/29 00:57:05;;;;;;;;;;;16.50;85.50;;;;;;5037797;28;20088;-81
2023/09/29 00:59:32;;;;;;;6.28;1.23;;;16.40;84.80;;;;;;5049375;28;20352;-82
2023/09/29 01:01:58;;;;;;;2.10;1.45;;;16.40;85.20;;;;;;5031230;28;20075;-81
2023/09/29 01:04:24;;;;;;;2.78;1.70;;;;;;;;;;5030828;28;20057;-82
2023/09/29 01:06:50;;;;;;;2.75;1.50;;;16.80;95.70;;;;;;5031084;28;20042;-81
2023/09/29 01:09:16;;;;;;;2.15;1.48;;;;;;;;;;5029153;28;20036;-82
2023/09/29 01:11:43;;;;;;;2.03;1.60;;;16.10;88.20;;;;;;5029607;28;20044;-81
2023/09/29 01:14:13;;;;;;;3.90;1.80;;;16.30;96.70;;;;;;5022822;28;20017;-81
2023/09/29 01:16:39;;;;;;;2.88;2.05;;;;;;;;;;5045200;28;20543;-81
2023/09/29 01:19:11;;;;;;;2.80;1.50;;;16.20;88.30;;;;;;5049227;28;20043;-81
2023/09/29 01:21:47;;;;;;;2.17;1.67;;;16.20;88.30;;;;;;5048484;28;20576;-81
2023/09/29 01:24:14;;;;;;;3.83;1.80;;;;;;;;;;5049394;28;20081;-81
2023/09/29 01:26:44;;;;;;;3.20;2.20;;;16.00;96.80;;;;;;5042318;28;20531;-82
2023/09/29 01:29:11;;;;;;;2.60;1.80;;;;;;;;;;5049920;28;20029;-81
2023/09/29 01:31:38;;;;;;;2.00;1.43;;;16.10;87.60;;;;;;5048330;28;20021;-82
2023/09/29 01:34:04;;;;;;;1.90;1.50;;;;;;;;;;5049831;28;20025;-81
2023/09/29 01:36:34;;;;;;;3.60;1.88;;;16.30;87.00;;;;;;5048338;28;20044;-81
2023/09/29 01:39:00;;;;;;;4.40;2.60;;;;;;;;;;5049398;28;20036;-81
2023/09/29 01:41:27;;;;;;;3.53;1.63;;;;;;;;;;5048281;28;20029;-81
2023/09/29 01:43:52;;;;;;;1.52;1.25;;;;;;;;;;5049170;28;20040;-81
2023/09/29 01:46:18;;;;;;;6.03;1.50;;;;;;;;;;5042539;28;20490;-81
2023/09/29 01:48:44;;;;;;;2.10;1.90;;;;;;;;;;5040870;28;20021;-82
2023/09/29 01:51:11;;;;;;;2.10;1.30;;;;;;;;;;5035876;28;20476;-81
2023/09/29 01:53:37;;;;;;;2.60;1.73;;;;;;;;;;5049118;28;20409;-81
2023/09/29 01:56:03;;;;;;;3.33;1.63;;;;;;;;;;5030619;28;20026;-81
2023/09/29 01:58:31;;;;;;;4.72;1.58;;;;;;;;;;5041042;28;20032;-81
2023/09/29 02:00:57;;;;;;;1.45;1.00;;;;;;;;;;5030811;28;20029;-81
2023/09/29 02:03:23;;;;;;;2.47;1.80;;;;;;;;;;5040987;28;20849;-81
2023/09/29 02:05:50;;;;;;;4.45;2.00;;;;;;;;;;5048106;28;20256;-81
2023/09/29 02:08:18;;;;;;;3.50;1.45;;;;;;;;;;5046003;28;20045;-81
2023/09/29 02:10:49;;;;;;;12.40;1.65;;;;;;;;;;5048334;28;20021;-82
2023/09/29 02:13:15;;;;;;;2.72;1.75;;;16.20;98.20;;;;;;5048949;28;20363;-81
2023/09/29 02:15:41;;;;;;;3.85;1.13;;;;;;;;;;5047690;28;20040;-81
2023/09/29 02:18:09;;;;;;;5.97;1.73;;;;;;;;;;5048791;28;20033;-81
2023/09/29 02:20:41;;;;;;;3.72;1.30;;;15.80;91.10;;;;;;5049074;28;20017;-81
2023/09/29 02:23:07;;;;;;;4.03;1.73;;;;;;;;;;5048677;28;20743;-81
2023/09/29 02:25:33;;;;;;;2.35;1.52;;;;;;;;;;5041362;28;20112;-81
2023/09/29 02:28:00;;;;;;;2.22;1.42;;;;;;;;;;5029255;28;20086;-82
2023/09/29 02:30:27;;;;;;;4.05;1.88;;;15.70;91.50;;;;;;5028886;28;20029;-81
2023/09/29 02:32:53;;;;;;;;;;;15.70;91.70;;;;;;5034894;28;20088;-81
2023/09/29 02:35:19;;;;;;;3.08;1.73;;;15.80;99.30;;;;;;5040703;28;19972;-81
2023/09/29 02:37:46;;;;;;;8.57;2.05;;;;;;;;;;5029247;28;20079;-81
2023/09/29 02:40:12;;;;;;;1.40;1.20;;;;;;;;;;5029583;28;20467;-81
2023/09/29 02:42:38;;;;;;;2.47;1.58;;;;;;;;;;5030419;28;20037;-81
2023/09/29 02:45:05;;;;;;;2.92;1.90;;;15.70;91.90;;;;;;5029325;28;20013;-81
2023/09/29 02:47:31;;;;;;;4.05;1.75;;;;;;;;;;5028378;28;20056;-81
2023/09/29 02:49:58;;;;;;;2.03;1.60;;;15.70;91.60;;;;;;5029514;28;20022;-81
2023/09/29 02:52:25;;;;;;;3.63;1.88;;;;;;;;;;5060718;28;20029;-82
2023/09/29 02:54:51;;;;;;;2.78;1.95;;;;;;;;;;5029700;28;20033;-81
2023/09/29 02:57:17;;;;;;;5.97;1.52;;;15.60;99.00;;;;;;5029054;28;20041;-81
2023/09/29 02:59:44;;;;;;;4.18;1.67;;;;;;;;;;5044537;28;20482;-82
2023/09/29 03:02:10;;;;;;;5.38;2.08;;;;;;;;;;5030264;28;20048;-80
2023/09/29 03:04:39;;;;;;;3.35;1.38;;;;;;;;;;5029776;28;20045;-81
2023/09/29 03:07:05;;;;;;;3.45;1.95;;;;;;;;;;5029377;28;20525;-80
2023/09/29 03:09:33;;;;;;;2.30;1.45;;;;;;;;;;5029569;28;20057;-81
2023/09/29 03:12:00;;;;;;;3.45;1.58;;;;;;;;;;5029624;28;20510;-81
2023/09/29 03:14:26;;;;;;;4.25;1.60;;;;;;;;;;5032218;28;20026;-81
2023/09/29 03:16:53;;;;;;;2.55;2.03;;;;;;;;;;5031608;28;20065;-82
2023/09/29 03:19:20;;;;;;;;;;;15.90;94.20;;;;;;5033574;28;20034;-80
2023/09/29 03:21:46;;;;;;;4.93;1.90;;;;;;;;;;5033287;28;19913;-81
2023/09/29 03:24:12;;;;;;;7.22;1.90;;;;;;;;;;5032548;28;20520;-81
2023/09/29 03:26:38;;;;;;;2.83;1.60;;;;;;;;;;5032498;28;20037;-81
2023/09/29 03:29:04;;;;;;;1.92;1.55;;;;;;;;;;5032686;28;20033;-81
2023/09/29 03:31:30;;;;;;;4.40;2.03;;;;;;;;;;5032112;28;20030;-81
2023/09/29 03:33:56;;;;;;;4.28;1.83;;;;;;;;;;5042235;28;20083;-81
2023/09/29 03:36:22;;;;;;;3.47;1.98;;;;;;;;;;5036055;28;20029;-81
2023/09/29 03:38:48;;;;;;;5.85;1.88;;;;;;;;;;5032961;28;20037;-82
2023/09/29 03:41:14;;;;;;;7.05;1.60;;;;;;;;;;5033051;28;20493;-81
2023/09/29 03:43:41;;;;;;;7.32;2.20;;;;;;;;;;5032624;28;20052;-81
2023/09/29 03:46:17;;;;;;;2.87;1.70;;;15.30;99.90;;;;;;5032687;28;20266;-82
2023/09/29 03:48:46;;;;;;;2.72;1.73;;;;;;;;;;5032493;28;20977;-81
2023/09/29 03:51:12;;;;;;;3.30;2.15;;;;;;;;;;5037080;28;20021;-81
2023/09/29 03:53:38;;;;;;;6.60;1.88;;;;;;;;;;5052098;28;20532;-81
2023/09/29 03:56:04;;;;;;;3.10;2.28;;;;;;;;;;5051647;28;20031;-82
2023/09/29 03:58:31;;;;;;;5.30;1.90;;;;;;;;;;5051467;28;20024;-81
2023/09/29 04:00:56;;;;;;;5.70;3.22;;;15.60;99.90;;;;;;5047924;28;20036;-82
2023/09/29 04:03:22;;;;;;;2.60;1.80;;;;;;;;;;5051478;28;20028;-81
2023/09/29 04:05:49;;;;;;;3.63;2.20;;;;;;;;;;5048819;28;20036;-81
2023/09/29 04:08:14;;;;;;;4.10;2.33;;;15.30;99.90;;;;;;5051525;28;20036;-81
2023/09/29 04:10:40;;;;;;;2.10;1.60;;;;;;;;;;5051112;28;20415;-82
2023/09/29 04:13:06;;;;;;;3.35;2.10;;;;;;;;;;5051596;28;20090;-81
2023/09/29 04:15:32;;;;;;;2.85;1.85;;;;;;;;;;5049908;28;20025;-81
2023/09/29 04:17:58;;;;;;;3.80;1.85;;;;;;;;;;5050584;28;20037;-82
2023/09/29 04:20:24;;;;;;;6.93;1.63;;;;;;;;;;5049975;28;20083;-81
2023/09/29 04:22:50;;;;;;;3.85;1.75;;;;;;;;;;5049236;28;20052;-81
2023/09/29 04:25:16;;;;;;;4.78;1.70;;;;;;;;;;5050388;28;20025;-81
2023/09/29 04:27:42;;;;;;;6.20;2.05;;;;;;;;;;5043127;28;20450;-81
2023/09/29 04:30:09;;;;;;;5.32;2.22;;;15.00;99.90;;;;;;5050655;28;20498;-81
2023/09/29 04:32:35;;;;;;;2.47;1.70;;;;;;;;;;5049024;28;20025;-81
2023/09/29 04:35:01;;;;;;;3.07;1.70;;;;;;;;;;5050663;28;20120;-81
2023/09/29 04:37:27;;;;;;;4.38;2.28;;;;;;;;;;5050663;28;20032;-81
2023/09/29 04:39:55;;;;;;;3.00;1.90;;;;;;;;;;5050111;28;20445;-82
2023/09/29 04:42:21;;;;;;;2.72;1.65;;;;;;;;;;5050290;28;20029;-81
2023/09/29 04:44:47;;;;;;;2.63;1.90;;;;;;;;;;5048841;28;20025;-81
2023/09/29 04:47:13;;;;;;;2.95;1.80;;;;;;;;;;5037800;28;20091;-81
2023/09/29 04:49:39;;;;;;;3.70;1.85;;;;;;;;;;5044358;28;20033;-81
2023/09/29 04:52:05;;;;;;;3.83;1.70;;;;;;;;;;5042757;28;20025;-81
2023/09/29 04:54:31;;;;;;;5.90;2.22;;;;;;;;;;5044369;28;20090;-81
2023/09/29 04:56:57;;;;;;;7.35;1.92;;;;;;;;;;5042921;28;20410;-81
2023/09/29 04:59:23;;;;;;;2.70;1.48;;;;;;;;;;5032069;28;20041;-81
2023/09/29 05:01:49;;;;;;;3.35;1.92;;;;;;;;;;5030685;28;20570;-81
2023/09/29 05:04:15;;;;;;;1.88;1.30;;;;;;;;;;5032824;28;20049;-81
2023/09/29 05:06:41;;;;;;;3.13;1.52;;;;;;;;;;5031183;28;20041;-81
2023/09/29 05:09:09;;;;;;;2.35;1.77;;;;;;;;;;5030120;28;20025;-90
2023/09/29 05:11:37;;;;;;;3.13;2.08;;;;;;;;;;5036490;28;20033;-88
2023/09/29 05:14:03;;;;;;;2.67;1.88;;;;;;;;;;5032820;28;20029;-89
2023/09/29 05:16:29;;;;;;;6.47;2.45;;;;;;;;;;5034000;28;20033;-89
2023/09/29 05:18:55;;;;;;;2.53;1.70;;;;;;;;;;5031090;28;20029;-88
2023/09/29 05:21:23;;;;;;;2.53;1.92;;;;;;;;;;5034484;28;20050;-89
2023/09/29 05:23:50;;;;;;;2.92;1.63;;;15.20;95.50;;;;;;5043690;28;20021;-90
2023/09/29 05:26:16;;;;;;;2.83;1.77;;;;;;;;;;5036672;28;20025;-89
2023/09/29 05:28:42;;;;;;;1.50;1.10;;;;;;;;;;5025879;28;20029;-89
2023/09/29 05:31:09;;;;;;;6.53;1.98;;;;;;;;;;5038289;28;20053;-90
2023/09/29 05:33:35;;;;;;;2.05;1.85;;;;;;;;;;5033156;28;20040;-88
2023/09/29 05:36:01;;;;;;;4.18;1.75;;;;;;;;;;5045170;28;20029;-89
2023/09/29 05:38:27;;;;;;;3.60;1.80;;;;;;;;;;5034514;28;20393;-89
2023/09/29 05:40:54;;;;;;;3.47;2.00;;;;;;;;;;5034408;28;20091;-91
2023/09/29 05:43:20;;;;;;;4.72;2.00;;;;;;;;;;5032355;28;20056;-90
2023/09/29 05:45:46;;;;;;;5.00;2.17;;;;;;;;;;5030811;28;20105;-89
2023/09/29 05:48:12;;;;;;;3.47;2.13;;;;;;;;;;5032765;28;20041;-88
2023/09/29 05:50:38;;;;;;;2.28;1.92;;;;;;;;;;5044198;28;20528;-89
2023/09/29 05:53:05;;;;;;;4.45;2.35;;;;;;;;;;5033181;28;20063;-89
2023/09/29 05:55:31;;;;;;;3.30;2.15;;;;;;;;;;5038048;28;20091;-91
2023/09/29 05:57:57;;;;;;;2.53;2.25;;;;;;;;;;5024641;28;20108;-91
2023/09/29 06:00:25;;;;;;;2.20;1.83;;;15.30;95.30;;;;;;5043559;28;20032;-90
2023/09/29 06:02:51;;;;;;;5.47;2.83;;;;;;;;;;5041423;28;20083;-90
2023/09/29 06:05:17;;;;;;;3.83;2.08;;;;;;;;;;5035172;28;20077;-90
2023/09/29 06:07:45;;;;;;;;;;;15.30;96.10;;;;;;5041532;28;20053;-90
2023/09/29 06:10:11;;;;;;;2.90;1.73;;;;;;;;;;5044055;28;20368;-89
2023/09/29 06:12:37;;;;;;;3.63;2.20;;;;;;;;;;5031983;28;20040;-90
2023/09/29 06:15:03;;;;;;;2.78;2.55;;;;;;;;;;5037160;28;20029;-89
2023/09/29 06:17:30;;;;;;;3.15;2.00;;;15.70;95.20;;;;;;5043699;28;20032;-92
2023/09/29 06:19:56;;;;;;;3.00;1.85;;;;;;;;;;5041190;28;20036;-93
2023/09/29 06:22:22;;;;;;;4.45;2.40;;;;;;;;;;5040874;28;20033;-94
2023/09/29 06:24:49;;;;;;;3.50;2.40;;;;;;;;;;5036441;28;20475;-92
2023/09/29 06:27:15;;;;;;;3.67;3.08;;;;;;;;;;5041521;28;20112;-93
2023/09/29 06:29:41;;;;;;;4.28;2.83;;;;;;;;;;5049935;28;20085;-92
2023/09/29 06:32:10;;;;;;;7.95;3.22;;;;;;;;;;5042053;28;20017;-87
2023/09/29 06:34:37;;;;;;;5.97;2.83;;;;;;;;;;5018927;28;20040;-87
2023/09/29 06:37:03;;;;;;;3.22;2.60;;;;;;;;;;5037060;28;20030;-91
2023/09/29 06:39:29;;;;;;;5.68;3.13;;;;;;;;;;5037619;28;20174;-92
2023/09/29 06:41:55;;;;;;;2.80;2.50;;;;;;;;;;5041139;28;20013;-92
2023/09/29 06:44:21;;;;;;;4.25;1.88;;;;;;;;;;5035807;28;20040;-91
2023/09/29 06:46:47;;;;;;;2.17;1.60;;;;;;;;;;5031280;28;20041;-91
2023/09/29 06:49:13;;;;;;;3.08;2.15;;;;;;;;;;5039203;28;20135;-89
2023/09/29 06:51:39;;;;;;;4.75;3.03;;;;;;;;;;5037434;28;20555;-89
2023/09/29 06:54:05;;;;;;;2.60;2.20;;;;;;;;;;5033340;28;20025;-89
2023/09/29 06:56:31;;;;;;;6.53;2.60;;;;;;;;;;5040666;28;20033;-94
2023/09/29 07:01:32;;;;;;;5.35;2.22;;;;;;;;;;4989404;28;20051;-93
2023/09/29 07:03:58;;;;;;;4.38;1.80;;;37.30;48.60;;;;;;4982721;28;20038;-93
2023/09/29 07:06:24;;;;;;;4.20;1.30;;;;;;;;;;4979415;28;20451;-93
2023/09/29 07:08:50;;;;;;;2.88;1.77;;;;;;;;;;4982206;28;20030;-92
2023/09/29 07:11:16;;;;;;;5.32;2.10;;;;;;;;;;4993202;28;20038;-88
2023/09/29 07:13:42;;;;;;;2.53;1.67;;;;;;;;;;4991713;28;20033;-91
2023/09/29 07:16:08;;;;;;;2.58;1.70;;;;;;;;;;4983712;28;20035;-89
2023/09/29 07:18:35;;;;;;;3.15;2.47;;;;;;;;;;4964883;28;20054;-86
2023/09/29 07:21:01;;;;;;;4.68;2.30;;;;;;;;;;4978987;28;20519;-87
2023/09/29 07:23:29;;;;;;;;;;;48.20;29.10;;;;;;4984063;28;20054;-86
2023/09/29 07:25:55;;;;;;;8.40;1.50;;;;;;;;;;4967720;28;19906;-87
2023/09/29 07:28:22;;;;;;;3.35;2.17;;;;;;;;;;4985350;28;20038;-86
2023/09/29 07:30:50;;;;;;;2.03;1.83;;;;;;;;;;4983943;28;20030;-86
2023/09/29 07:33:16;;;;;;;3.13;2.53;;;;;;;;;;4980306;28;20031;-85
2023/09/29 07:35:44;;;;;;;2.13;1.63;;;52.40;26.10;;;;;;4974145;28;20038;-86
2023/09/29 07:38:10;;;;;;;5.95;1.80;;;;;;;;;;4981614;28;20499;-86
2023/09/29 07:40:36;;;;;;;6.95;2.53;;;;;;;;;;4987627;28;20563;-89
2023/09/29 07:43:05;;;;;;;3.15;2.40;;;52.30;29.90;;;;;;4990038;28;20118;-91
2023/09/29 07:45:32;;;;;;;5.97;2.17;;;53.10;24.90;;;;;;4986241;28;20031;-85
2023/09/29 07:47:58;;;;;;;4.55;1.75;;;;;;;;;;4959840;28;20053;-85
2023/09/29 07:50:25;;;;;;;4.07;2.15;;;;;;;;;;4973273;28;20026;-85
2023/09/29 07:52:51;;;;;;;2.40;1.70;;;;;;;;;;4983932;28;20058;-94
2023/09/29 07:55:17;;;;;;;2.95;1.90;;;;;;;;;;4983969;28;20097;-89
2023/09/29 07:57:43;;;;;;;2.13;1.92;;;;;;;;;;4982253;28;20026;-89
2023/09/29 08:00:10;;;;;;;2.03;1.92;;;56.70;28.20;;;;;;4980239;28;20516;-91
2023/09/29 08:02:36;;;;;;;1.63;1.52;;;57.60;28.00;;;;;;4969097;28;20030;-83
2023/09/29 08:05:02;;;;;;;1.77;1.52;;;58.10;27.60;;;;;;4971184;28;20039;-86
2023/09/29 08:07:27;;;;;;;2.08;1.80;;;58.30;27.20;;;;;;4956247;28;20153;-85
2023/09/29 08:09:54;;;;;;;2.20;1.90;;;;;;;;;;4985389;28;20118;-86
2023/09/29 08:12:20;;;;;;;1.80;1.70;;;;;;;;;;4988607;28;20025;-85
2023/09/29 08:14:47;;;;;;;2.10;1.95;;;;;;;;;;4992484;28;20099;-87
2023/09/29 08:17:13;;;;;;;2.92;2.22;;;;;;;;;;4968021;28;20045;-86
2023/09/29 08:19:39;;;;;;;2.75;2.55;;;59.20;26.40;;;;;;4992436;28;20026;-85
2023/09/29 08:22:05;;;;;;;4.00;2.05;;;;;;;;;;4992107;28;20025;-86
2023/09/29 08:24:32;;;;;;;2.10;1.90;;;;;;;;;;4976475;28;20026;-87
2023/09/29 08:26:58;;;;;;;3.30;2.10;;;60.70;26.50;;;;;;4986321;28;20295;-86
2023/09/29 08:29:24;;;;;;;2.08;1.88;;;;;;;;;;4963849;28;20081;-93
2023/09/29 08:31:50;;;;;;;2.45;2.25;;;60.80;25.80;;;;;;4975739;28;20017;-93
2023/09/29 08:34:15;;;;;;;7.32;2.42;;;60.10;25.40;;;;;;4963877;28;20117;-94
2023/09/29 08:36:42;;;;;;;2.50;2.30;;;;;;;;;;4986473;28;20049;-94
2023/09/29 08:39:08;;;;;;;1.67;1.58;;;;;;;;;;4980526;28;20065;-89
2023/09/29 08:41:35;;;;;;;5.35;1.17;;;53.40;21.00;;;;;;4972524;28;20049;-86
2023/09/29 08:44:07;;;;;;;1.77;1.13;;;48.20;22.60;;;;;;4974968;28;20023;-86
2023/09/29 08:46:40;;;;;;;2.83;1.13;;;44.20;24.30;;;;;;4976102;28;20046;-86
2023/09/29 08:49:08;;;;;;;3.25;1.33;;;43.80;24.40;;;;;;4991525;28;20026;-91
2023/09/29 08:51:36;;;;;;;3.53;0.93;;;41.00;25.50;;;;;;4969976;28;20035;-90
2023/09/29 08:54:04;;;;;;;2.35;1.30;;;38.70;26.80;;;;;;4961173;28;20121;-87
2023/09/29 08:56:30;;;;;;;3.20;1.30;;;;;;;;;;4981714;28;20031;-90
2023/09/29 08:58:56;;;;;;;2.42;1.70;;;;;;;;;;4976718;28;20054;-90
2023/09/29 09:01:23;;;;;;;2.58;1.60;;;;;;;;;;4983377;28;20401;-92
2023/09/29 09:03:49;;;;;;;2.53;1.35;;;;;;;;;;4990588;28;20026;-94
2023/09/29 09:06:23;;;;;;;3.10;1.83;;;55.40;25.80;;;;;;4982624;28;20030;-92
2023/09/29 09:08:54;;;;;;;1.42;1.10;;;57.60;21.60;;;;;;4988303;28;20034;-93
2023/09/29 09:11:20;;;;;;;2.42;1.30;;;;;;;;;;4967042;28;20026;-89
2023/09/29 09:13:59;;;;;;;1.48;1.13;;;61.20;20.70;;;;;;4994291;28;20033;-83
2023/09/29 09:16:29;;;;;;;2.13;1.00;;;55.90;21.20;;;;;;4982042;28;20034;-80
2023/09/29 09:18:55;;;;;;;2.30;0.95;;;;;;;;;;4974475;28;20444;-83
2023/09/29 09:21:32;;;;;;;1.77;1.40;;;45.50;23.80;;;;;;4978807;28;20022;-84
2023/09/29 09:23:58;;;;;;;1.70;0.70;;;;;;;;;;4978735;28;20034;-84
2023/09/29 09:26:28;;;;;;;1.25;0.57;;;40.80;26.20;;;;;;4981830;28;20026;-81
2023/09/29 09:28:54;;;;;;;1.20;0.77;;;;;;;;;;4980602;28;20030;-81
2023/09/29 09:31:20;;;;;;;;;;;41.20;27.10;;;;;;4975873;28;20030;-82
2023/09/29 09:33:53;;;;;;;3.15;1.58;;;46.50;30.20;;;;;;4961462;28;19909;-82
2023/09/29 09:36:19;;;;;;;1.65;1.10;;;;;;;;;;4988545;28;20740;-81
2023/09/29 09:38:48;;;;;;;4.47;1.15;;;;;;;;;;4973229;28;20031;-82
2023/09/29 09:41:16;;;;;;;2.67;1.08;;;57.40;21.80;;;;;;4979008;28;20073;-81
2023/09/29 09:43:43;;;;;;;1.08;0.88;;;;;;;;;;4995908;28;20220;-80
2023/09/29 09:46:14;;;;;;;1.40;1.30;;;59.00;21.00;;;;;;4989827;28;20101;-82
2023/09/29 09:48:56;;;;;;;2.15;1.00;;;58.80;20.70;;;;;;4965507;28;20033;-81
2023/09/29 09:51:44;;;;;;;1.25;0.93;;;58.40;20.70;;;;;;4985097;28;20019;-81
2023/09/29 09:54:13;;;;;;;1.30;1.20;;;59.10;20.90;;;;;;4972442;28;20169;-79
2023/09/29 09:56:39;;;;;;;4.05;1.27;;;;;;;;;;4979181;28;20073;-79
2023/09/29 09:59:07;;;;;;;3.25;0.90;;;60.40;20.60;;;;;;4977717;28;20058;-80
2023/09/29 10:01:33;;;;;;;3.08;1.30;;;61.20;20.60;;;;;;4980223;28;20237;-80
2023/09/29 10:04:04;;;;;;;2.38;1.10;;;61.50;20.60;;;;;;4980298;28;20554;-81
2023/09/29 10:06:30;;;;;;;2.58;1.60;;;;;;;;;;4981673;28;20500;-83
2023/09/29 10:09:08;;;;;;;2.35;1.67;;;60.30;20.10;;;;;;4967341;28;20029;-82
2023/09/29 10:11:34;;;;;;;2.00;1.50;;;;;;;;;;4986556;28;20030;-81
2023/09/29 10:14:07;;;;;;;2.90;1.63;;;60.70;20.40;;;;;;4986814;28;20042;-81
2023/09/29 10:16:35;;;;;;;1.45;1.20;;;;;;;;;;4975888;28;20105;-82
2023/09/29 10:19:11;;;;;;;1.25;1.15;;;59.40;20.00;;;;;;4977480;28;20093;-82
2023/09/29 10:21:45;;;;;;;1.88;1.10;;;58.60;20.20;;;;;;4986738;28;20784;-82
2023/09/29 10:24:13;;;;;;;1.60;1.10;;;;;;;;;;4984400;28;20026;-82
2023/09/29 10:26:48;;;;;;;1.52;0.90;;;58.30;20.20;;;;;;4986045;28;20080;-84
2023/09/29 10:29:24;;;;;;;2.13;1.13;;;58.40;25.00;;;;;;4965384;28;20033;-84
2023/09/29 10:31:50;;;;;;;2.55;1.30;;;;;;;;;;4975301;28;20034;-84
2023/09/29 10:34:22;;;;;;;2.03;1.20;;;57.90;22.30;;;;;;4978948;28;20381;-84
2023/09/29 10:36:56;;;;;;;2.42;1.25;;;57.60;20.00;;;;;;4955980;28;20082;-86
2023/09/29 10:39:27;;;;;;;2.00;1.05;;;56.60;20.00;;;;;;4973048;28;20035;-84
2023/09/29 10:42:12;;;;;;;3.15;1.35;;;56.50;21.40;;;;;;4985331;28;20030;-84
2023/09/29 10:44:55;;;;;;;2.85;1.80;;;55.60;20.30;;;;;;4984123;28;20396;-84
2023/09/29 10:47:34;;;;;;;3.00;1.65;;;54.90;20.50;;;;;;4967975;28;20061;-85
2023/09/29 10:50:03;;;;;;;8.05;1.80;;;;;;;;;;4979040;28;20321;-85
2023/09/29 10:52:30;;;;;;;6.28;1.70;;;;;;;;;;4971416;28;20712;-86
2023/09/29 10:54:59;;;;;;;3.17;1.52;;;;;;;;;;4961901;28;20072;-85
2023/09/29 10:57:28;;;;;;;2.90;1.50;;;49.60;20.90;;;;;;4980912;28;20042;-83
2023/09/29 10:59:59;;;;;;;3.33;1.50;;;;;;;;;;4978529;28;20054;-82
2023/09/29 11:02:30;;;;;;;2.83;1.70;;;43.50;23.20;;;;;;4973990;28;20482;-82
2023/09/29 11:04:57;;;;;;;3.47;1.30;;;40.20;24.70;;;;;;4971710;28;20062;-91
2023/09/29 11:07:29;;;;;;;2.42;1.45;;;;;;;;;;4971812;28;20037;-92
2023/09/29 11:09:55;;;;;;;2.60;1.10;;;;;;;;;;4983732;28;20054;-81
2023/09/29 11:12:26;;;;;;;11.73;1.63;;;;;;;;;;4982434;28;20021;-82
2023/09/29 11:14:53;;;;;;;2.53;1.38;;;;;;;;;;4971813;28;20097;-82
2023/09/29 11:17:19;;;;;;;7.10;1.35;;;;;;;;;;4978913;28;20517;-83
2023/09/29 11:19:58;;;;;;;4.00;1.67;;;33.90;30.00;;;;;;4974928;28;20027;-83
2023/09/29 11:22:25;;;;;;;4.32;1.48;;;;;;;;;;4985524;28;20030;-86
2023/09/29 11:24:51;;;;;;;5.75;1.73;;;;;;;;;;4980997;28;20030;-81
2023/09/29 11:27:20;;;;;;;5.30;2.20;;;;;;;;;;4978993;28;20858;-83
2023/09/29 11:29:46;;;;;;;6.22;1.98;;;;;;;;;;4979728;28;20027;-83
2023/09/29 11:32:12;;;;;;;3.60;1.52;;;;;;;;;;4976880;28;20027;-84
2023/09/29 11:34:38;;;;;;;5.00;1.45;;;;;;;;;;4977629;28;20684;-90
2023/09/29 11:37:04;;;;;;;3.13;1.40;;;;;;;;;;4986335;28;20038;-89
2023/09/29 11:39:30;;;;;;;2.75;1.40;;;;;;;;;;4984943;28;20269;-83
2023/09/29 11:41:57;;;;;;;5.32;2.25;;;;;;;;;;4975710;28;20714;-85
2023/09/29 11:44:24;;;;;;;3.42;1.00;;;;;;;;;;4984400;28;20030;-85
2023/09/29 11:46:49;;;;;;;4.38;1.48;;;;;;;;;;4985341;28;20022;-85
2023/09/29 11:49:16;;;;;;;3.57;1.67;;;;;;;;;;4972991;28;20038;-86
2023/09/29 11:51:42;;;;;;;6.68;1.77;;;;;;;;;;4976841;28;20034;-86
2023/09/29 11:54:08;;;;;;;6.40;1.53;;;;;;;;;;4977104;28;20030;-84
2023/09/29 11:56:34;;;;;;;3.60;1.20;;;;;;;;;;4986838;28;20030;-86
2023/09/29 11:59:00;;;;;;;4.30;1.63;;;;;;;;;;4975736;28;20120;-85
2023/09/29 12:01:26;;;;;;;4.53;1.60;;;;;;;;;;4972193;28;20289;-86
2023/09/29 12:03:52;;;;;;;4.15;1.83;;;;;;;;;;4985521;28;20033;-84
2023/09/29 12:06:18;;;;;;;2.17;1.07;;;;;;;;;;4995120;28;20450;-83
2023/09/29 12:08:45;;;;;;;5.57;1.60;;;;;;;;;;4974755;28;20295;-82
2023/09/29 12:11:15;;;;;;;4.57;1.98;;;;;;;;;;4979442;28;20288;-82
2023/09/29 12:13:42;;;;;;;5.63;1.50;;;;;;;;;;4987294;28;20030;-80
2023/09/29 12:16:09;;;;;;;3.53;1.58;;;;;;;;;;4979373;28;20027;-82
2023/09/29 12:18:35;;;;;;;5.30;1.55;;;;;;;;;;4975959;28;20053;-83
2023/09/29 12:21:09;;;;;;;5.17;2.07;;;31.00;36.40;;;;;;4976328;28;20065;-83
2023/09/29 12:23:35;;;;;;;6.10;2.05;;;;;;;;;;4982291;28;20030;-81
2023/09/29 12:26:01;;;;;;;5.30;1.40;;;;;;;;;;4984244;28;20026;-81
2023/09/29 12:28:27;;;;;;;5.47;1.33;;;;;;;;;;4973662;28;20061;-86
2023/09/29 12:30:53;;;;;;;8.73;3.20;;;;;;;;;;4975879;28;20041;-82
2023/09/29 12:33:21;;;;;;;3.63;2.03;;;;;;;;;;4979552;28;20026;-82
2023/09/29 12:35:47;;;;;;;4.18;1.50;;;;;;;;;;4971724;28;20042;-86
2023/09/29 12:38:13;;;;;;;7.30;1.87;;;;;;;;;;4979754;28;20042;-84
2023/09/29 12:40:39;;;;;;;7.30;1.77;;;;;;;;;;4978475;28;20027;-84
2023/09/29 12:43:05;;;;;;;4.93;1.30;;;;;;;;;;4975580;28;20578;-85
2023/09/29 12:45:31;;;;;;;8.87;2.37;;;;;;;;;;4984059;28;20042;-81
2023/09/29 12:47:58;;;;;;;3.43;1.50;;;;;;;;;;4974087;28;20580;-83
2023/09/29 12:50:24;;;;;;;2.85;1.00;;;;;;;;;;4984829;28;20034;-90
2023/09/29 12:52:53;;;;;;;3.40;1.38;;;;;;;;;;4986779;28;20113;-87
2023/09/29 12:55:19;;;;;;;10.02;1.92;;;30.80;36.60;;;;;;4979688;28;20035;-90
2023/09/29 12:57:46;;;;;;;15.25;2.13;;;;;;;;;;4970725;28;21776;-88
2023/09/29 13:00:19;;;;;;;3.90;1.38;;;;;;;;;;4987782;28;20423;-88
2023/09/29 13:02:51;;;;;;;6.60;1.38;;;28.80;38.80;;;;;;4975825;28;20022;-86
2023/09/29 13:05:17;;;;;;;10.82;2.42;;;;;;;;;;4988601;28;20546;-83
2023/09/29 13:07:45;;;;;;;5.93;1.80;;;;;;;;;;4966441;28;20047;-84
2023/09/29 13:10:11;;;;;;;2.35;0.95;;;;;;;;;;4982981;28;20789;-84
2023/09/29 13:12:37;;;;;;;6.75;2.03;;;;;;;;;;4962889;28;20114;-84
2023/09/29 13:15:05;;;;;;;7.25;1.65;;;;;;;;;;4990750;28;20033;-83
2023/09/29 13:17:31;;;;;;;4.63;1.50;;;;;;;;;;4971818;28;20046;-82
2023/09/29 13:19:57;;;;;;;4.57;2.07;;;;;;;;;;4982016;28;20030;-80
2023/09/29 13:22:23;;;;;;;2.88;1.15;;;;;;;;;;4985481;28;20399;-80
2023/09/29 13:24:49;;;;;;;4.72;1.52;;;;;;;;;;4985408;28;20035;-81
2023/09/29 13:27:15;;;;;;;3.63;1.38;;;;;;;;;;4984871;28;20054;-81
2023/09/29 13:29:41;;;;;;;5.43;1.58;;;;;;;;;;4970939;28;20043;-80
2023/09/29 13:32:07;;;;;;;6.68;2.03;;;;;;;;;;4981937;28;20029;-82
2023/09/29 13:34:33;;;;;;;2.75;1.30;;;;;;;;;;4979437;28;20043;-82
2023/09/29 13:36:59;;;;;;;4.50;0.77;;;;;;;;;;4976570;28;20727;-83
2023/09/29 13:39:26;;;;;;;4.82;1.42;;;;;;;;;;4983479;28;20046;-82
2023/09/29 13:41:52;;;;;;;4.47;0.93;;;;;;;;;;4989557;28;20034;-83
2023/09/29 13:44:18;;;;;;;2.17;0.60;;;;;;;;;;4979193;28;20186;-82
2023/09/29 13:46:46;;;;;;;3.07;1.10;;;;;;;;;;4983020;28;20045;-83
2023/09/29 13:49:12;;;;;;;3.72;0.65;;;;;;;;;;4970292;28;20105;-81
2023/09/29 13:51:39;;;;;;;1.67;0.70;;;;;;;;;;4981312;28;20439;-82
2023/09/29 13:54:05;;;;;;;3.33;1.17;;;;;;;;;;4977130;28;20081;-81
2023/09/29 13:56:31;;;;;;;2.27;0.90;;;;;;;;;;4980471;28;20026;-82
2023/09/29 13:59:00;;;;;;;2.45;0.85;;;;;;;;;;4971979;28;20089;-82
2023/09/29 14:01:27;;;;;;;4.85;0.82;;;;;;;;;;4980187;28;20068;-82
2023/09/29 14:03:56;;;;;;;3.45;1.35;;;;;;;;;;4987722;28;20629;-81
2023/09/29 14:06:22;;;;;;;3.25;0.90;;;;;;;;;;4978512;28;20030;-81
2023/09/29 14:08:48;;;;;;;3.03;0.73;;;;;;;;;;4969239;28;20029;-80
2023/09/29 14:11:14;;;;;;;4.70;1.13;;;;;;;;;;4970369;28;20045;-80
2023/09/29 14:13:40;;;;;;;1.23;0.50;;;;;;;;;;4982471;28;20026;-78